Time;durP1;ratioP1;P1;durP2;ratioP2;P2;SDS_P1;SDS_P2;PMS_P1;PMS_P2;Temp;Humidity;BMP_temperature;BMP_pressure;BME280_temperature;BME280_humidity;BME280_pressure;Samples;Min_cycle;Max_cycle;Signal;HPM_P1;HPM_P2
2022/01/18 00:01:15;;;;;;;;;28.00;25.33;;;;;7.15;67.10;103402.03;4959239;28;45295;-71
2022/01/18 00:03:40;;;;;;;;;30.67;26.00;;;;;6.74;67.17;103345.38;4958774;28;45229;-71
2022/01/18 00:06:06;;;;;;;;;26.33;23.67;;;;;7.24;66.81;103400.84;4959136;28;45280;-70
2022/01/18 00:08:31;;;;;;;;;28.33;27.67;;;;;7.31;66.83;103402.31;4955384;28;45536;-70
2022/01/18 00:10:57;;;;;;;;;29.00;27.33;;;;;7.21;66.82;103383.31;4979532;28;46379;-69
2022/01/18 00:18:29;;;;;;;;;34.67;27.33;;;;;7.27;67.32;103390.13;4978663;28;45517;-70
2022/01/18 00:23:33;;;;;;;;;31.33;29.67;;;;;7.29;66.95;103404.16;4978650;28;45419;-71
2022/01/18 00:25:59;;;;;;;;;33.00;30.33;;;;;7.31;67.28;103399.69;4978490;28;45535;-71
2022/01/18 00:28:27;;;;;;;;;34.33;30.67;;;;;6.66;66.89;103284.00;4978684;28;45339;-70
2022/01/18 00:35:51;;;;;;;;;38.00;30.00;;;;;6.79;68.54;103369.84;4978326;28;45398;-71
2022/01/18 00:38:29;;;;;;;;;39.33;33.67;;;;;6.97;68.31;103387.69;4957472;28;45436;-72
2022/01/18 00:40:56;;;;;;;;;33.00;29.00;;;;;7.03;68.31;103396.34;4958665;28;45541;-70
2022/01/18 00:43:22;;;;;;;;;44.33;32.67;;;;;6.36;67.61;103278.88;4958768;28;45467;-71
2022/01/18 00:45:47;;;;;;;;;40.33;34.00;;;;;6.92;68.23;103376.44;4941600;28;45533;-72
2022/01/18 00:48:13;;;;;;;;;33.33;32.33;;;;;6.92;68.06;103372.91;4967866;28;45486;-70
2022/01/18 00:50:38;;;;;;;;;39.00;30.33;;;;;6.94;68.44;103379.88;4978730;28;46162;-70
2022/01/18 00:53:09;;;;;;;;;52.25;40.75;;;;;6.92;67.99;103378.22;4978102;28;45306;-69
2022/01/18 00:55:46;;;;;;;;;30.33;26.67;;;;;6.89;68.06;103367.75;4978326;28;45412;-70
2022/01/18 00:58:12;;;;;;;;;30.00;29.67;;;;;6.84;67.88;103373.22;4960525;28;45489;-70
2022/01/18 01:00:37;;;;;;;;;36.00;32.00;;;;;6.81;68.24;103351.28;4960144;28;46943;-70
2022/01/18 01:03:02;;;;;;;;;29.00;25.00;;;;;6.87;67.94;103372.22;4978051;28;45543;-72
2022/01/18 01:05:28;;;;;;;;;40.67;34.33;;;;;6.82;68.03;103364.47;4978207;28;45462;-70
2022/01/18 01:07:53;;;;;;;;;32.33;27.33;;;;;6.74;68.17;103355.94;4978155;28;45573;-69
2022/01/18 01:10:19;;;;;;;;;33.67;31.67;;;;;6.76;68.94;103350.59;4960071;28;47540;-71
2022/01/18 01:12:44;;;;;;;;;33.67;27.33;;;;;6.89;68.45;103381.84;4977834;28;45535;-69
2022/01/18 01:15:13;;;;;;;;;36.75;33.50;;;;;6.60;69.06;103339.69;4975677;28;45468;-71
2022/01/18 01:18:05;;;;;;;;;34.33;33.33;;;;;6.75;68.24;103378.81;4959953;28;45473;-71
2022/01/18 01:41:39;;;;;;;;;38.00;33.67;;;;;6.15;71.23;103380.00;4977647;28;45146;-71
2022/01/18 01:42:34;;;;;;;;;38.00;31.67;;;;;5.99;71.57;103366.44;4977332;28;45376;-71
2022/01/18 01:44:51;;;;;;;;;32.67;27.67;;;;;5.84;72.33;103358.16;4975919;28;45225;-71
2022/01/18 01:47:20;;;;;;;;;32.67;30.33;;;;;5.76;72.65;103393.56;4977163;28;45220;-72
2022/01/18 01:49:50;;;;;;;;;37.00;33.67;;;;;5.55;73.77;103386.31;4960228;28;45661;-71
2022/01/18 01:52:16;;;;;;;;;42.00;35.33;;;;;5.41;73.67;103391.16;4977294;28;45730;-70
2022/01/18 01:54:42;;;;;;;;;35.00;32.00;;;;;5.33;74.45;103385.22;4976979;28;45450;-70
2022/01/18 01:57:08;;;;;;;;;46.33;39.00;;;;;5.25;74.56;103395.16;4976976;28;45501;-70
2022/01/18 01:59:35;;;;;;;;;39.00;33.00;;;;;5.18;75.07;103405.00;4973033;28;45597;-70
2022/01/18 02:02:01;;;;;;;;;45.33;37.67;;;;;5.12;75.10;103395.50;4957894;28;46890;-70
2022/01/18 02:04:29;;;;;;;;;34.00;31.00;;;;;5.04;75.31;103397.50;4957846;28;45317;-71
2022/01/18 02:06:55;;;;;;;;;42.33;35.67;;;;;4.86;75.49;103388.31;4958657;28;45627;-70
2022/01/18 02:09:20;;;;;;;;;44.00;34.67;;;;;4.52;75.73;103330.41;4974668;28;45302;-69
2022/01/18 02:11:46;;;;;;;;;40.00;34.67;;;;;4.94;75.22;103401.28;4977253;28;46138;-69
2022/01/18 02:14:18;;;;;;;;;33.00;31.67;;;;;5.15;75.48;103390.13;4977104;28;45424;-70
2022/01/18 02:22:19;;;;;;;;;34.67;31.67;;;;;5.29;74.28;103376.53;4976382;28;45258;-70
2022/01/18 02:24:45;;;;;;;;;37.00;34.00;;;;;5.49;73.53;103399.69;4975570;28;46334;-69
2022/01/18 02:27:10;;;;;;;;;32.00;27.67;;;;;5.61;73.24;103394.06;4978742;28;45539;-70
2022/01/18 02:29:36;;;;;;;;;34.67;27.67;;;;;5.56;72.65;103374.84;4980443;28;45453;-70
2022/01/18 02:32:03;;;;;;;;;33.67;31.67;;;;;5.66;72.71;103386.84;4980033;28;46558;-70
2022/01/18 02:34:29;;;;;;;;;41.33;32.67;;;;;5.46;72.43;103381.31;4980213;28;45477;-69
2022/01/18 02:36:57;;;;;;;;;36.00;31.33;;;;;5.37;73.28;103394.75;4980246;28;45408;-71
2022/01/18 02:39:27;;;;;;;;;41.00;34.00;;;;;5.30;73.61;103383.53;4980506;28;45366;-70
2022/01/18 02:41:57;;;;;;;;;41.33;36.00;;;;;5.22;74.67;103376.78;4979948;28;45633;-69
2022/01/18 02:44:24;;;;;;;;;50.67;38.00;;;;;5.14;74.72;103391.03;4980134;28;45259;-69
2022/01/18 02:46:50;;;;;;;;;35.33;32.33;;;;;4.98;74.40;103370.41;4962008;28;45413;-69
2022/01/18 02:49:16;;;;;;;;;38.67;27.33;;;;;4.84;75.26;103368.19;4962474;28;45268;-71
2022/01/18 02:51:42;;;;;;;;;33.00;31.33;;;;;4.86;75.24;103388.31;4979680;28;45674;-70
2022/01/18 02:54:10;;;;;;;;;27.67;26.67;;;;;4.39;74.96;103281.59;4979744;28;45468;-70
2022/01/18 02:56:44;;;;;;;;;38.67;33.00;;;;;5.05;74.34;103372.84;4979969;28;45200;-69
2022/01/18 02:59:35;;;;;;;;;38.67;34.00;;;;;4.44;75.55;103290.25;4961938;28;45495;-70
2022/01/18 03:04:42;;;;;;;;;31.67;24.33;;;;;4.85;74.54;103288.22;4979620;28;45251;-69
2022/01/18 03:07:09;;;;;;;;;31.67;23.00;;;;;5.47;73.19;103361.94;4979778;28;45248;-69
2022/01/18 03:09:34;;;;;;;;;37.00;29.00;;;;;5.50;72.50;103362.69;4961961;28;45583;-70
2022/01/18 03:12:00;;;;;;;;;25.00;23.33;;;;;5.58;72.65;103346.63;4979362;28;46707;-69
2022/01/18 03:14:26;;;;;;;;;31.33;26.67;;;;;5.54;71.69;103313.31;4979331;28;45385;-69
2022/01/18 03:16:52;;;;;;;;;36.67;34.33;;;;;5.75;71.94;103328.47;4964832;28;45336;-70
2022/01/18 03:19:17;;;;;;;;;32.67;25.67;;;;;5.74;71.46;103310.91;4999202;28;45249;-69
2022/01/18 03:21:43;;;;;;;;;34.67;29.33;;;;;5.90;71.39;103315.72;4999089;28;46101;-69
2022/01/18 03:29:28;;;;;;;;;30.00;28.67;;;;;5.89;70.92;103329.81;4999438;28;45433;-70
2022/01/18 03:31:54;;;;;;;;;41.33;30.67;;;;;6.00;71.15;103341.75;4998841;28;46040;-69
2022/01/18 03:34:20;;;;;;;;;33.67;27.67;;;;;6.10;70.18;103329.13;4981056;28;45619;-70
2022/01/18 03:36:46;;;;;;;;;35.33;33.00;;;;;6.13;70.45;103330.78;4980803;28;45575;-70
2022/01/18 03:39:11;;;;;;;;;37.00;32.67;;;;;6.14;69.74;103343.09;4981036;28;45319;-69
2022/01/18 03:41:37;;;;;;;;;33.67;27.33;;;;;6.13;70.34;103338.72;4998744;28;45833;-69
2022/01/18 03:44:03;;;;;;;;;35.33;29.67;;;;;5.99;70.75;103310.13;4981180;28;45978;-67
2022/01/18 03:46:28;;;;;;;;;28.67;26.67;;;;;6.05;71.12;103336.34;4998950;28;45355;-70
2022/01/18 03:48:54;;;;;;;;;31.00;28.67;;;;;6.01;70.24;103345.28;4998933;28;45144;-69
2022/01/18 03:51:20;;;;;;;;;36.00;33.00;;;;;6.02;70.57;103337.31;4980679;28;48337;-69
2022/01/18 03:53:45;;;;;;;;;31.67;30.00;;;;;5.94;70.61;103326.13;4997337;28;45528;-69
2022/01/18 03:56:11;;;;;;;;;37.67;35.00;;;;;5.88;70.38;103323.66;4999084;28;45429;-71
2022/01/18 03:58:36;;;;;;;;;28.67;23.00;;;;;5.82;70.98;103320.38;4998864;28;45359;-69
2022/01/18 04:01:03;;;;;;;;;33.00;27.67;;;;;5.72;70.94;103307.47;4998214;28;46711;-69
2022/01/18 04:03:29;;;;;;;;;39.00;29.67;;;;;5.94;71.43;103341.09;4998356;28;45510;-69
2022/01/18 04:05:56;;;;;;;;;35.33;25.67;;;;;6.07;70.92;103342.44;4980662;28;45257;-69
2022/01/18 04:08:22;;;;;;;;;30.67;28.67;;;;;6.09;70.40;103324.75;4997176;28;45320;-70
2022/01/18 04:10:47;;;;;;;;;29.67;24.00;;;;;6.05;70.50;103328.44;4997764;28;46020;-71
2022/01/18 04:13:13;;;;;;;;;34.67;30.33;;;;;5.95;70.14;103319.06;4980550;28;45409;-70
2022/01/18 04:15:38;;;;;;;;;31.33;24.33;;;;;5.97;70.55;103311.97;4998709;28;45740;-69
2022/01/18 04:28:58;;;;;;;;;38.33;32.00;;;;;5.84;71.50;103326.47;4998416;28;45493;-70
2022/01/18 04:31:25;;;;;;;;;31.00;27.67;;;;;5.75;71.79;103304.72;4997869;28;45596;-69
2022/01/18 04:33:51;;;;;;;;;27.33;25.33;;;;;5.85;71.43;103320.28;4996625;28;45473;-70
2022/01/18 04:36:17;;;;;;;;;34.67;30.67;;;;;5.88;71.14;103328.09;4998090;28;45623;-70
2022/01/18 04:38:42;;;;;;;;;32.33;29.33;;;;;5.88;71.17;103328.09;4998271;28;45536;-70
2022/01/18 04:41:12;;;;;;;;;38.67;28.00;;;;;5.82;71.78;103317.75;4979759;28;48530;-70
2022/01/18 04:48:58;;;;;;;;;26.67;26.00;;;;;5.95;71.04;103304.09;4996681;28;45305;-73
2022/01/18 04:51:23;;;;;;;;;31.00;26.33;;;;;5.91;71.01;103297.19;4998212;28;46449;-69
2022/01/18 04:53:54;;;;;;;;;43.67;33.67;;;;;5.93;71.41;103305.91;4980848;28;45874;-71
2022/01/18 04:56:29;;;;;;;;;35.33;29.67;;;;;5.93;71.25;103312.97;4997807;28;45260;-70
2022/01/18 04:58:55;;;;;;;;;35.00;29.33;;;;;5.75;72.11;103301.22;4997897;28;45386;-70
2022/01/18 05:01:20;;;;;;;;;30.33;26.00;;;;;5.72;71.92;103320.66;4976393;28;48278;-71
2022/01/18 05:03:46;;;;;;;;;35.00;29.00;;;;;5.45;72.72;103288.13;4976097;28;45519;-70
2022/01/18 05:06:15;;;;;;;;;33.67;24.67;;;;;5.54;72.83;103305.41;4960370;28;45220;-72
2022/01/18 05:08:41;;;;;;;;;34.00;29.00;;;;;5.55;73.15;103304.50;4977807;28;45161;-71
2022/01/18 05:11:11;;;;;;;;;32.00;31.00;;;;;5.61;73.18;103312.25;4976981;28;47999;-70
2022/01/18 05:21:17;;;;;;;;;33.00;29.67;;;;;5.72;72.81;103327.72;4996611;28;45533;-70
2022/01/18 05:23:42;;;;;;;;;39.67;33.67;;;;;5.52;73.74;103309.88;4997300;28;45304;-71
2022/01/18 05:26:09;;;;;;;;;37.67;27.33;;;;;5.48;73.24;103295.06;4997223;28;45337;-69
2022/01/18 05:28:34;;;;;;;;;37.00;32.33;;;;;5.61;72.90;103304.31;4997438;28;45326;-71
2022/01/18 05:30:59;;;;;;;;;39.67;33.33;;;;;5.84;73.03;103326.47;4996453;28;45690;-71
2022/01/18 05:33:25;;;;;;;;;39.67;32.33;;;;;5.76;72.82;103313.50;4996495;28;45330;-70
2022/01/18 05:35:51;;;;;;;;;29.33;26.33;;;;;5.63;72.61;103296.34;4979462;28;45390;-73
2022/01/18 05:38:16;;;;;;;;;38.33;29.33;;;;;5.61;72.90;103308.75;4997091;28;45429;-70
2022/01/18 05:40:41;;;;;;;;;41.00;34.33;;;;;5.63;73.06;103313.06;4995932;28;46007;-71
2022/01/18 05:43:07;;;;;;;;;33.33;30.00;;;;;5.59;72.46;103302.63;4979082;28;45534;-71
2022/01/18 05:45:33;;;;;;;;;32.00;28.67;;;;;5.55;73.73;103307.13;4979549;28;45546;-71
2022/01/18 05:47:58;;;;;;;;;37.33;30.00;;;;;5.50;73.75;103306.44;4996983;28;45357;-71
2022/01/18 05:50:24;;;;;;;;;37.67;32.33;;;;;5.31;74.62;103290.31;4996626;28;45646;-70
2022/01/18 05:52:49;;;;;;;;;40.33;33.67;;;;;5.34;74.34;103297.25;4978858;28;45313;-69
2022/01/18 05:55:16;;;;;;;;;32.00;29.33;;;;;5.32;74.57;103305.22;4996496;28;45413;-70
2022/01/18 05:57:41;;;;;;;;;28.00;20.33;;;;;5.15;74.75;103297.81;4979467;28;45585;-71
2022/01/18 06:00:11;;;;;;;;;31.67;26.67;;;;;5.17;74.55;103292.50;4996619;28;45783;-69
2022/01/18 06:02:49;;;;;;;;;29.67;25.33;;;;;5.06;75.00;103289.34;4982203;28;45534;-72
2022/01/18 06:07:59;;;;;;;;;32.67;30.33;;;;;5.14;74.41;103296.09;4980962;28;45274;-69
2022/01/18 06:10:25;;;;;;;;;40.67;30.00;;;;;5.24;74.63;103306.38;4985180;28;45711;-70
2022/01/18 06:12:51;;;;;;;;;31.67;27.00;;;;;5.15;74.82;103299.59;4978941;28;45288;-71
2022/01/18 06:15:17;;;;;;;;;26.67;20.00;;;;;5.13;74.14;103306.69;4980617;28;45450;-70
2022/01/18 06:17:42;;;;;;;;;30.33;23.33;;;;;5.01;74.43;103281.59;4959676;28;45561;-71
2022/01/18 06:20:09;;;;;;;;;32.67;27.67;;;;;4.50;74.30;103213.69;4970112;28;45602;-70
2022/01/18 06:22:34;;;;;;;;;24.67;21.33;;;;;5.07;74.97;103318.31;4980831;28;45471;-71
2022/01/18 06:25:00;;;;;;;;;24.67;22.00;;;;;4.84;74.77;103294.38;4963096;28;45249;-71
2022/01/18 06:27:32;;;;;;;;;33.33;26.67;;;;;4.64;73.91;103236.13;4979497;28;45637;-71
2022/01/18 06:29:57;;;;;;;;;27.50;25.50;;;;;5.17;74.22;103325.00;4979799;28;46759;-71
2022/01/18 06:32:24;;;;;;;;;30.67;27.67;;;;;5.26;73.51;103323.03;4978665;28;45355;-72
2022/01/18 06:34:50;;;;;;;;;28.67;26.33;;;;;5.02;73.15;103282.44;4962769;28;45321;-71
2022/01/18 06:37:15;;;;;;;;;30.00;27.00;;;;;4.74;73.03;103225.25;4980350;28;45412;-71
2022/01/18 06:39:41;;;;;;;;;22.67;17.00;;;;;5.04;73.51;103264.81;4978634;28;48561;-71
2022/01/18 06:42:07;;;;;;;;;25.67;23.67;;;;;5.33;73.19;103308.72;4979381;28;45363;-70
2022/01/18 06:44:33;;;;;;;;;32.00;26.67;;;;;5.30;73.12;103322.88;4978436;28;45497;-73
2022/01/18 06:46:58;;;;;;;;;24.00;21.33;;;;;5.07;73.36;103298.97;4994647;28;45537;-70
2022/01/18 06:49:24;;;;;;;;;39.33;32.67;;;;;5.08;73.27;103305.97;4979204;28;46228;-71
2022/01/18 06:51:49;;;;;;;;;30.00;26.33;;;;;5.12;73.43;103321.66;4980660;28;45444;-70
2022/01/18 06:54:17;;;;;;;;;31.67;26.00;;;;;5.18;73.81;103339.91;4978688;28;45428;-70
2022/01/18 06:56:46;;;;;;;;;30.33;24.00;;;;;5.17;73.42;103324.16;4978337;28;45484;-71
2022/01/18 06:59:12;;;;;;;;;35.33;27.67;;;;;4.97;73.71;103279.06;4977794;28;47733;-71
2022/01/18 07:01:37;;;;;;;;;31.67;23.67;;;;;5.31;73.54;103339.56;4979887;28;46033;-70
2022/01/18 07:04:03;;;;;;;;;30.33;28.00;;;;;5.04;73.14;103299.94;4994413;28;45476;-71
2022/01/18 07:06:28;;;;;;;;;27.67;23.67;;;;;4.81;73.52;103247.03;4978737;28;45318;-71
2022/01/18 07:08:54;;;;;;;;;29.67;23.00;;;;;4.88;72.92;103249.44;4978100;28;46761;-72
2022/01/18 07:11:20;;;;;;;;;28.00;22.67;;;;;5.39;73.24;103333.13;4978118;28;45838;-71
2022/01/18 07:13:45;;;;;;;;;27.33;22.67;;;;;5.45;72.58;103325.03;4977502;28;45374;-73
2022/01/18 07:16:11;;;;;;;;;27.67;24.00;;;;;5.46;72.81;103320.63;4988313;28;45501;-71
2022/01/18 07:18:37;;;;;;;;;27.67;26.67;;;;;5.62;72.52;103328.94;4970298;28;45989;-72
2022/01/18 07:21:03;;;;;;;;;19.00;17.33;;;;;5.66;72.46;103325.28;4993932;28;46883;-72
2022/01/18 07:23:28;;;;;;;;;33.00;25.33;;;;;5.72;72.30;103312.75;4997761;28;45399;-71
2022/01/18 07:25:54;;;;;;;;;26.33;24.67;;;;;5.70;71.72;103314.56;4998874;28;45188;-71
2022/01/18 07:28:20;;;;;;;;;38.00;26.67;;;;;5.77;72.12;103309.94;4999023;28;45906;-71
2022/01/18 07:30:47;;;;;;;;;39.00;30.00;;;;;5.87;71.87;103315.81;4999008;28;45495;-72
2022/01/18 07:33:13;;;;;;;;;21.33;18.00;;;;;5.74;71.16;103287.16;4997736;28;45395;-72
2022/01/18 07:35:40;;;;;;;;;29.67;26.00;;;;;5.90;71.45;103299.88;4996327;28;45183;-71
2022/01/18 07:38:06;;;;;;;;;38.33;27.33;;;;;5.94;71.46;103301.50;4993940;28;46531;-70
2022/01/18 07:40:32;;;;;;;;;41.33;36.67;;;;;5.75;71.39;103277.47;4976899;28;45948;-71
2022/01/18 07:43:01;;;;;;;;;29.00;26.33;;;;;5.88;71.47;103304.31;4977923;28;45423;-71
2022/01/18 07:45:30;;;;;;;;;33.67;28.00;;;;;5.80;71.53;103294.84;4997398;28;45434;-72
2022/01/18 07:47:55;;;;;;;;;36.33;29.67;;;;;5.84;71.96;103284.22;5013355;28;46306;-70
2022/01/18 07:50:21;;;;;;;;;31.00;27.67;;;;;5.90;71.56;103292.81;4998465;28;45320;-71
2022/01/18 07:52:47;;;;;;;;;29.00;28.33;;;;;5.91;71.21;103296.34;4997131;28;45515;-73
2022/01/18 07:55:12;;;;;;;;;36.33;28.33;;;;;5.96;71.12;103304.94;5013825;28;45330;-71
2022/01/18 07:57:41;;;;;;;;;32.33;26.33;;;;;5.99;70.89;103310.97;4996944;28;48316;-70
2022/01/18 08:00:13;;;;;;;;;31.50;26.50;;;;;6.02;71.06;103300.34;4992025;28;45489;-70
2022/01/18 08:02:38;;;;;;;;;25.00;18.67;;;;;6.00;71.21;103288.09;4978630;28;45503;-71
2022/01/18 08:05:05;;;;;;;;;31.67;30.00;;;;;6.20;70.35;103303.25;4960029;28;45347;-71
2022/01/18 08:07:30;;;;;;;;;22.33;22.00;;;;;5.98;70.91;103260.88;4978955;28;47573;-70
2022/01/18 08:09:56;;;;;;;;;26.67;21.67;;;;;6.16;70.84;103291.94;4989621;28;45741;-70
2022/01/18 08:12:23;;;;;;;;;23.67;19.67;;;;;6.23;70.39;103282.91;4975164;28;45608;-70
2022/01/18 08:14:50;;;;;;;;;27.00;26.00;;;;;6.18;70.47;103268.09;4978019;28;45342;-70
2022/01/18 08:17:16;;;;;;;;;28.00;26.67;;;;;6.27;70.26;103273.94;4991275;28;48374;-72
2022/01/18 08:19:42;;;;;;;;;28.00;26.33;;;;;6.43;70.55;103283.97;4978331;28;45215;-69
2022/01/18 08:22:09;;;;;;;;;34.67;31.67;;;;;6.51;69.47;103272.19;4978403;28;45516;-73
2022/01/18 08:24:34;;;;;;;;;54.67;40.67;;;;;6.52;69.67;103279.19;4986727;28;45406;-73
2022/01/18 08:27:00;;;;;;;;;30.33;28.67;;;;;6.46;70.25;103268.00;4981552;28;46596;-71
2022/01/18 08:29:25;;;;;;;;;38.00;26.00;;;;;6.46;69.66;103262.72;4997632;28;45433;-70
2022/01/18 08:31:50;;;;;;;;;36.33;32.67;;;;;6.63;70.32;103294.69;4997857;28;45288;-73
2022/01/18 08:34:16;;;;;;;;;27.67;25.67;;;;;6.68;69.86;103282.16;4997053;28;45415;-70
2022/01/18 08:36:42;;;;;;;;;37.00;31.33;;;;;6.83;69.26;103300.09;4994639;28;46350;-71
2022/01/18 08:39:08;;;;;;;;;37.33;33.33;;;;;6.84;69.37;103293.88;4991489;28;45507;-72
2022/01/18 08:41:34;;;;;;;;;35.33;27.67;;;;;6.84;69.32;103293.88;4978437;28;45285;-72
2022/01/18 08:44:00;;;;;;;;;37.67;32.00;;;;;6.82;69.23;103266.63;4978003;28;45580;-71
2022/01/18 08:46:26;;;;;;;;;37.33;31.33;;;;;7.14;69.05;103293.63;4976508;28;46000;-71
2022/01/18 08:48:52;;;;;;;;;22.67;22.67;;;;;7.01;68.55;103249.16;4976519;28;45600;-70
2022/01/18 08:51:18;;;;;;;;;26.67;24.00;;;;;7.35;68.50;103292.78;4998045;28;45234;-71
2022/01/18 08:53:48;;;;;;;;;31.33;30.67;;;;;7.35;68.17;103284.84;4989723;28;45306;-70
2022/01/18 08:56:16;;;;;;;;;30.00;26.00;;;;;7.22;68.10;103246.56;4977936;28;45630;-73
2022/01/18 08:58:42;;;;;;;;;23.00;21.33;;;;;7.46;68.51;103280.00;4976872;28;45586;-73
2022/01/18 09:01:07;;;;;;;;;25.33;22.67;;;;;7.54;68.43;103267.28;4978038;28;45178;-71
2022/01/18 09:03:33;;;;;;;;;31.67;29.33;;;;;7.59;67.70;103265.31;4977915;28;45276;-70
2022/01/18 09:05:58;;;;;;;;;26.33;24.33;;;;;7.61;68.02;103266.13;4985971;28;45680;-71
2022/01/18 09:08:24;;;;;;;;;29.00;27.33;;;;;7.54;67.97;103238.19;4995844;28;45441;-73
2022/01/18 09:10:50;;;;;;;;;24.00;22.33;;;;;7.82;68.09;103266.16;4997505;28;45370;-71
2022/01/18 09:13:16;;;;;;;;;27.67;25.00;;;;;7.91;67.42;103269.28;4997579;28;45337;-72
2022/01/18 09:15:42;;;;;;;;;31.00;25.33;;;;;8.00;67.21;103273.31;4997075;28;45562;-72
2022/01/18 09:18:08;;;;;;;;;23.33;22.00;;;;;8.11;67.44;103278.16;5010908;28;45344;-70
2022/01/18 09:20:38;;;;;;;;;29.00;25.33;;;;;7.47;67.01;103162.59;5003781;28;45530;-73
2022/01/18 09:23:04;;;;;;;;;37.67;30.00;;;;;8.21;67.40;103285.66;4979965;28;45566;-69
2022/01/18 09:25:30;;;;;;;;;35.00;33.00;;;;;8.24;67.36;103285.53;5000856;28;45286;-71
2022/01/18 09:27:56;;;;;;;;;35.33;28.00;;;;;8.15;66.89;103261.19;5017214;28;45556;-72
2022/01/18 09:30:26;;;;;;;;;27.33;25.33;;;;;8.22;66.94;103260.88;5017077;28;45499;-70
2022/01/18 09:32:52;;;;;;;;;36.67;29.67;;;;;8.20;67.00;103252.09;5001895;28;45469;-71
2022/01/18 09:35:17;;;;;;;;;36.00;33.00;;;;;8.26;66.83;103271.34;5004943;28;46300;-73
2022/01/18 09:37:43;;;;;;;;;34.33;31.67;;;;;8.28;67.10;103269.47;5016004;28;45433;-72
2022/01/18 09:40:16;;;;;;;;;29.67;22.67;;;;;8.21;67.23;103269.75;4995500;28;45532;-72
2022/01/18 09:42:43;;;;;;;;;21.00;21.00;;;;;8.25;67.17;103275.78;4994911;28;45413;-71
2022/01/18 09:45:14;;;;;;;;;30.33;28.67;;;;;8.19;67.53;103268.94;4987046;28;47775;-72
2022/01/18 09:47:42;;;;;;;;;37.00;32.33;;;;;8.21;67.56;103269.75;4995233;28;45506;-72
2022/01/18 09:50:11;;;;;;;;;32.67;25.00;;;;;8.15;67.72;103275.31;5004629;28;45402;-72
2022/01/18 09:52:38;;;;;;;;;30.67;29.00;;;;;8.17;67.75;103278.75;5013816;28;45585;-71
2022/01/18 09:55:06;;;;;;;;;32.67;26.67;;;;;8.13;67.58;103249.81;4977191;28;47044;-71
2022/01/18 09:57:32;;;;;;;;;36.67;30.33;;;;;8.27;67.27;103276.56;4995486;28;45546;-72
2022/01/18 09:59:59;;;;;;;;;35.67;31.33;;;;;8.22;67.40;103284.72;5012365;28;45287;-74
2022/01/18 10:02:25;;;;;;;;;29.67;29.00;;;;;8.23;67.78;103288.25;5003174;28;45666;-72
2022/01/18 10:04:53;;;;;;;;;40.33;35.00;;;;;8.21;67.97;103283.00;4975295;28;48214;-72
2022/01/18 10:07:31;;;;;;;;;25.00;23.00;;;;;8.14;68.37;103276.25;4976762;28;45200;-71
2022/01/18 10:10:02;;;;;;;;;42.33;34.00;;;;;8.06;68.67;103274.84;4996512;28;45361;-70
2022/01/18 10:12:28;;;;;;;;;43.67;35.67;;;;;7.95;69.39;103262.06;4978882;28;45596;-74
2022/01/18 10:14:56;;;;;;;;;41.67;34.00;;;;;7.95;69.36;103283.25;5000562;28;45719;-74
2022/01/18 10:17:30;;;;;;;;;26.33;25.00;;;;;7.95;69.25;103267.34;5016143;28;45568;-72
2022/01/18 10:20:03;;;;;;;;;35.00;31.00;;;;;8.10;68.87;103277.31;4998493;28;45361;-73
2022/01/18 10:22:39;;;;;;;;;38.67;34.33;;;;;8.02;69.12;103260.88;4998575;28;45495;-71
2022/01/18 10:25:17;;;;;;;;;36.67;34.00;;;;;8.06;69.11;103254.53;4958913;28;47443;-73
2022/01/18 10:27:47;;;;;;;;;38.33;29.00;;;;;7.91;68.84;103232.19;4976483;28;45479;-70
2022/01/18 10:30:20;;;;;;;;;33.33;30.33;;;;;8.19;68.96;103266.28;4976909;28;45520;-70
2022/01/18 10:33:08;;;;;;;;;34.00;31.00;;;;;8.12;69.01;103264.84;4976210;28;45508;-72
2022/01/18 10:35:33;;;;;;;;;37.00;32.67;;;;;8.18;69.03;103250.47;4959338;28;47173;-73
2022/01/18 10:37:59;;;;;;;;;36.67;32.67;;;;;8.21;68.90;103253.88;4958781;28;45940;-74
2022/01/18 10:40:26;;;;;;;;;30.67;26.33;;;;;7.07;68.91;103039.06;4976178;28;45652;-71
2022/01/18 10:42:53;;;;;;;;;34.00;29.67;;;;;8.23;68.56;103241.41;4958964;28;45225;-72
2022/01/18 10:45:21;;;;;;;;;29.00;27.33;;;;;8.22;68.82;103234.38;4958295;28;45992;-72
2022/01/18 10:47:57;;;;;;;;;31.00;28.67;;;;;8.19;68.61;103218.59;4961140;28;46456;-73
2022/01/18 10:50:24;;;;;;;;;37.67;28.67;;;;;8.33;68.14;103214.47;4962272;28;45411;-72
2022/01/18 10:52:52;;;;;;;;;29.00;25.67;;;;;8.39;68.28;103216.88;4980552;28;45402;-72
2022/01/18 10:55:22;;;;;;;;;25.33;23.67;;;;;8.23;68.06;103188.41;4962497;28;46596;-71
2022/01/18 10:57:50;;;;;;;;;37.33;30.67;;;;;8.05;67.45;103153.91;4963465;28;45965;-77
2022/01/18 11:00:21;;;;;;;;;32.67;27.67;;;;;8.27;67.78;103183.81;4981063;28;45401;-74
2022/01/18 11:02:54;;;;;;;;;29.33;27.00;;;;;8.38;66.90;103196.59;4981336;28;45469;-73
2022/01/18 11:05:25;;;;;;;;;39.00;30.00;;;;;8.46;67.07;103194.47;4994680;28;46173;-74
2022/01/18 11:07:50;;;;;;;;;32.67;28.00;;;;;8.38;66.92;103170.09;4981703;28;45727;-75
2022/01/18 11:10:18;;;;;;;;;22.67;21.33;;;;;8.36;66.79;103148.09;4981853;28;45612;-74
2022/01/18 11:13:10;;;;;;;;;32.00;27.50;;;;;8.59;66.38;103181.50;4981597;28;45362;-71
2022/01/18 11:15:41;;;;;;;;;22.33;21.67;;;;;8.57;66.20;103163.00;4977606;28;47353;-73
2022/01/18 11:18:15;;;;;;;;;22.00;21.00;;;;;8.48;65.79;103139.59;4980646;28;46211;-72
2022/01/18 11:20:43;;;;;;;;;24.33;23.33;;;;;8.67;65.05;103168.75;4999986;28;45259;-74
2022/01/18 11:23:09;;;;;;;;;23.33;23.00;;;;;8.69;65.42;103158.94;4979790;28;45544;-73
2022/01/18 11:25:37;;;;;;;;;29.00;25.33;;;;;8.72;64.58;103153.47;5003133;28;45785;-74
2022/01/18 11:28:05;;;;;;;;;28.67;23.00;;;;;8.67;64.18;103132.47;5019576;28;45325;-72
2022/01/18 11:30:33;;;;;;;;;18.67;18.33;;;;;8.91;64.01;103148.16;4998288;28;45585;-75
2022/01/18 11:33:02;;;;;;;;;20.00;17.33;;;;;8.79;63.30;103113.31;5000131;28;45348;-75
2022/01/18 11:35:42;;;;;;;;;20.33;17.00;;;;;8.58;63.26;103065.75;4999013;28;45705;-74
2022/01/18 11:38:33;;;;;;;;;23.33;19.00;;;;;8.96;63.15;103115.13;4999562;28;45423;-74
2022/01/18 11:40:59;;;;;;;;;19.67;17.00;;;;;8.93;62.85;103114.44;4981060;28;45335;-75
2022/01/18 11:43:44;;;;;;;;;16.00;16.00;;;;;9.01;62.53;103112.25;4999678;28;45453;-75
2022/01/18 11:46:29;;;;;;;;;17.67;15.00;;;;;8.96;62.32;103087.75;4980891;28;48752;-74
2022/01/18 11:49:04;;;;;;;;;16.67;15.00;;;;;9.20;61.76;103115.72;4979158;28;45355;-74
2022/01/18 11:51:40;;;;;;;;;16.00;16.00;;;;;9.21;61.17;103114.81;4979847;28;45383;-72
2022/01/18 11:54:26;;;;;;;;;16.00;13.33;;;;;9.28;61.03;103104.72;4981076;28;45640;-74
2022/01/18 11:56:51;;;;;;;;;16.67;15.00;;;;;9.19;61.25;103098.06;4999048;28;45732;-74
2022/01/18 11:59:18;;;;;;;;;13.67;13.67;;;;;8.88;60.70;103042.19;4998885;28;45509;-75
2022/01/18 12:01:55;;;;;;;;;10.33;9.00;;;;;9.30;60.50;103098.41;4999179;28;45383;-72
2022/01/18 12:04:47;;;;;;;;;12.67;12.00;;;;;9.37;60.40;103099.78;4999392;28;45382;-74
2022/01/18 12:07:31;;;;;;;;;16.00;13.00;;;;;9.45;60.23;103092.31;4981749;28;47774;-76
2022/01/18 12:09:56;;;;;;;;;19.67;16.67;;;;;9.55;59.85;103102.44;4981823;28;46181;-75
2022/01/18 12:12:45;;;;;;;;;11.00;8.67;;;;;9.62;59.13;103087.94;4980684;28;45449;-75
2022/01/18 12:15:19;;;;;;;;;12.67;12.67;;;;;9.62;59.31;103082.63;4997132;28;45528;-77
2022/01/18 12:17:54;;;;;;;;;13.33;10.33;;;;;9.64;58.43;103076.28;4981548;28;45509;-76
2022/01/18 12:20:32;;;;;;;;;10.33;9.00;;;;;9.63;58.10;103073.69;4998531;28;45283;-75
2022/01/18 12:23:14;;;;;;;;;9.67;9.00;;;;;9.68;58.44;103066.34;4977250;28;45425;-75
2022/01/18 12:26:15;;;;;;;;;13.33;9.00;;;;;9.68;57.98;103072.50;4979347;28;45293;-72
2022/01/18 12:34:31;;;;;;;;;13.67;10.00;;;;;9.75;58.45;103060.59;4997196;28;45358;-73
2022/01/18 12:37:17;;;;;;;;;14.00;12.67;;;;;9.72;59.15;103041.31;4998660;28;45371;-75
2022/01/18 12:39:57;;;;;;;;;17.33;13.33;;;;;9.76;59.32;103040.22;4973727;28;45525;-74